sensor_id;sensor_type;location;lat;lon;timestamp;P1;durP1;ratioP1;P2;durP2;ratioP2
2259;SDS011;333;48.800;9.530;2023-04-15T00:00:57;4.70;;;4.30;;
2259;SDS011;333;48.800;9.530;2023-04-15T00:03:24;8.60;;;4.70;;
2259;SDS011;333;48.800;9.530;2023-04-15T00:05:53;5.87;;;5.27;;
2259;SDS011;333;48.800;9.530;2023-04-15T00:08:21;10.70;;;5.80;;
2259;SDS011;333;48.800;9.530;2023-04-15T00:10:48;6.40;;;4.80;;
2259;SDS011;333;48.800;9.530;2023-04-15T00:13:15;6.33;;;4.67;;
2259;SDS011;333;48.800;9.530;2023-04-15T00:15:41;6.50;;;5.23;;
2259;SDS011;333;48.800;9.530;2023-04-15T00:18:09;5.93;;;5.27;;
2259;SDS011;333;48.800;9.530;2023-04-15T00:20:38;9.90;;;5.03;;
2259;SDS011;333;48.800;9.530;2023-04-15T00:23:07;5.10;;;4.53;;
2259;SDS011;333;48.800;9.530;2023-04-15T00:25:34;8.13;;;5.53;;
2259;SDS011;333;48.800;9.530;2023-04-15T00:28:01;6.93;;;5.20;;
2259;SDS011;333;48.800;9.530;2023-04-15T00:30:28;7.77;;;4.80;;
2259;SDS011;333;48.800;9.530;2023-04-15T00:32:55;7.50;;;5.10;;
2259;SDS011;333;48.800;9.530;2023-04-15T00:35:22;6.37;;;5.00;;
2259;SDS011;333;48.800;9.530;2023-04-15T00:37:49;7.07;;;4.83;;
2259;SDS011;333;48.800;9.530;2023-04-15T00:40:18;5.57;;;4.67;;
2259;SDS011;333;48.800;9.530;2023-04-15T00:42:49;7.40;;;5.83;;
2259;SDS011;333;48.800;9.530;2023-04-15T00:45:16;7.00;;;5.03;;
2259;SDS011;333;48.800;9.530;2023-04-15T00:47:43;5.73;;;4.57;;
2259;SDS011;333;48.800;9.530;2023-04-15T00:50:11;7.97;;;4.90;;
2259;SDS011;333;48.800;9.530;2023-04-15T00:52:38;4.80;;;4.30;;
2259;SDS011;333;48.800;9.530;2023-04-15T00:55:06;6.57;;;4.90;;
2259;SDS011;333;48.800;9.530;2023-04-15T00:57:35;12.37;;;5.33;;
2259;SDS011;333;48.800;9.530;2023-04-15T01:00:03;5.47;;;4.80;;
2259;SDS011;333;48.800;9.530;2023-04-15T01:02:32;5.83;;;4.40;;
2259;SDS011;333;48.800;9.530;2023-04-15T01:05:00;7.03;;;5.33;;
2259;SDS011;333;48.800;9.530;2023-04-15T01:07:28;5.67;;;5.17;;
2259;SDS011;333;48.800;9.530;2023-04-15T01:09:55;7.57;;;5.10;;
2259;SDS011;333;48.800;9.530;2023-04-15T01:12:22;7.30;;;4.40;;
2259;SDS011;333;48.800;9.530;2023-04-15T01:14:54;8.70;;;4.80;;
2259;SDS011;333;48.800;9.530;2023-04-15T01:17:21;6.20;;;4.90;;
2259;SDS011;333;48.800;9.530;2023-04-15T01:19:49;5.70;;;4.73;;
2259;SDS011;333;48.800;9.530;2023-04-15T01:22:17;9.63;;;4.53;;
2259;SDS011;333;48.800;9.530;2023-04-15T01:24:44;7.20;;;4.80;;
2259;SDS011;333;48.800;9.530;2023-04-15T01:27:25;5.70;;;5.10;;
2259;SDS011;333;48.800;9.530;2023-04-15T01:29:52;5.70;;;5.07;;
2259;SDS011;333;48.800;9.530;2023-04-15T01:32:19;5.43;;;4.97;;
2259;SDS011;333;48.800;9.530;2023-04-15T01:34:46;7.07;;;5.77;;
2259;SDS011;333;48.800;9.530;2023-04-15T01:37:13;8.23;;;4.80;;
2259;SDS011;333;48.800;9.530;2023-04-15T01:39:41;5.80;;;5.30;;
2259;SDS011;333;48.800;9.530;2023-04-15T01:42:08;7.20;;;6.10;;
2259;SDS011;333;48.800;9.530;2023-04-15T01:44:37;5.23;;;4.67;;
2259;SDS011;333;48.800;9.530;2023-04-15T01:47:04;6.50;;;5.40;;
2259;SDS011;333;48.800;9.530;2023-04-15T01:49:31;5.40;;;4.67;;
2259;SDS011;333;48.800;9.530;2023-04-15T01:51:58;9.53;;;4.87;;
2259;SDS011;333;48.800;9.530;2023-04-15T01:54:25;8.83;;;4.83;;
2259;SDS011;333;48.800;9.530;2023-04-15T01:56:52;5.00;;;4.37;;
2259;SDS011;333;48.800;9.530;2023-04-15T01:59:20;10.73;;;5.27;;
2259;SDS011;333;48.800;9.530;2023-04-15T02:01:49;10.33;;;5.60;;
2259;SDS011;333;48.800;9.530;2023-04-15T02:04:16;5.47;;;4.50;;
2259;SDS011;333;48.800;9.530;2023-04-15T02:06:43;7.20;;;4.60;;
2259;SDS011;333;48.800;9.530;2023-04-15T02:09:10;5.70;;;4.33;;
2259;SDS011;333;48.800;9.530;2023-04-15T02:11:37;7.53;;;5.80;;
2259;SDS011;333;48.800;9.530;2023-04-15T02:14:04;7.30;;;6.17;;
2259;SDS011;333;48.800;9.530;2023-04-15T02:16:31;6.43;;;5.83;;
2259;SDS011;333;48.800;9.530;2023-04-15T02:19:00;5.00;;;4.57;;
2259;SDS011;333;48.800;9.530;2023-04-15T02:21:27;5.30;;;4.60;;
2259;SDS011;333;48.800;9.530;2023-04-15T02:23:55;4.60;;;4.20;;
2259;SDS011;333;48.800;9.530;2023-04-15T02:26:22;9.57;;;4.60;;
2259;SDS011;333;48.800;9.530;2023-04-15T02:28:49;5.17;;;4.63;;
2259;SDS011;333;48.800;9.530;2023-04-15T02:31:16;5.30;;;4.70;;
2259;SDS011;333;48.800;9.530;2023-04-15T02:33:43;5.50;;;4.77;;
2259;SDS011;333;48.800;9.530;2023-04-15T02:36:12;4.30;;;3.90;;
2259;SDS011;333;48.800;9.530;2023-04-15T02:38:39;6.10;;;4.77;;
2259;SDS011;333;48.800;9.530;2023-04-15T02:41:07;6.60;;;4.57;;
2259;SDS011;333;48.800;9.530;2023-04-15T02:43:34;6.00;;;5.50;;
2259;SDS011;333;48.800;9.530;2023-04-15T02:46:04;8.50;;;4.97;;
2259;SDS011;333;48.800;9.530;2023-04-15T02:48:33;5.37;;;4.93;;
2259;SDS011;333;48.800;9.530;2023-04-15T02:51:14;5.60;;;5.03;;
2259;SDS011;333;48.800;9.530;2023-04-15T02:53:43;5.97;;;4.73;;
2259;SDS011;333;48.800;9.530;2023-04-15T02:56:10;6.90;;;5.43;;
2259;SDS011;333;48.800;9.530;2023-04-15T02:58:39;5.67;;;5.00;;
2259;SDS011;333;48.800;9.530;2023-04-15T03:01:06;5.47;;;4.97;;
2259;SDS011;333;48.800;9.530;2023-04-15T03:03:34;7.40;;;5.73;;
2259;SDS011;333;48.800;9.530;2023-04-15T03:06:00;7.33;;;5.27;;
2259;SDS011;333;48.800;9.530;2023-04-15T03:08:29;8.00;;;5.67;;
2259;SDS011;333;48.800;9.530;2023-04-15T03:10:56;6.13;;;5.13;;
2259;SDS011;333;48.800;9.530;2023-04-15T03:13:25;7.53;;;4.73;;
2259;SDS011;333;48.800;9.530;2023-04-15T03:15:52;6.87;;;5.20;;
2259;SDS011;333;48.800;9.530;2023-04-15T03:18:19;4.97;;;4.40;;
2259;SDS011;333;48.800;9.530;2023-04-15T03:20:46;5.63;;;5.13;;
2259;SDS011;333;48.800;9.530;2023-04-15T03:23:13;5.13;;;4.73;;
2259;SDS011;333;48.800;9.530;2023-04-15T03:25:41;5.33;;;4.30;;
2259;SDS011;333;48.800;9.530;2023-04-15T03:28:10;5.97;;;4.93;;
2259;SDS011;333;48.800;9.530;2023-04-15T03:30:37;6.97;;;6.00;;
2259;SDS011;333;48.800;9.530;2023-04-15T03:33:04;5.27;;;4.80;;
2259;SDS011;333;48.800;9.530;2023-04-15T03:35:31;5.53;;;3.93;;
2259;SDS011;333;48.800;9.530;2023-04-15T03:37:58;9.60;;;5.40;;
2259;SDS011;333;48.800;9.530;2023-04-15T03:40:25;7.37;;;5.10;;
2259;SDS011;333;48.800;9.530;2023-04-15T03:42:53;5.47;;;4.63;;
2259;SDS011;333;48.800;9.530;2023-04-15T03:45:20;6.20;;;5.60;;
2259;SDS011;333;48.800;9.530;2023-04-15T03:47:47;6.93;;;5.70;;
2259;SDS011;333;48.800;9.530;2023-04-15T03:50:14;6.90;;;6.20;;
2259;SDS011;333;48.800;9.530;2023-04-15T03:52:43;7.47;;;5.43;;
2259;SDS011;333;48.800;9.530;2023-04-15T03:55:10;7.97;;;6.13;;
2259;SDS011;333;48.800;9.530;2023-04-15T03:57:37;7.90;;;6.30;;
2259;SDS011;333;48.800;9.530;2023-04-15T04:00:06;6.70;;;5.20;;
2259;SDS011;333;48.800;9.530;2023-04-15T04:02:34;6.40;;;5.30;;
2259;SDS011;333;48.800;9.530;2023-04-15T04:05:01;7.73;;;5.80;;
2259;SDS011;333;48.800;9.530;2023-04-15T04:07:29;5.63;;;5.00;;
2259;SDS011;333;48.800;9.530;2023-04-15T04:09:56;8.80;;;5.57;;
2259;SDS011;333;48.800;9.530;2023-04-15T04:12:23;7.90;;;7.10;;
2259;SDS011;333;48.800;9.530;2023-04-15T04:14:50;6.67;;;6.00;;
2259;SDS011;333;48.800;9.530;2023-04-15T04:17:18;6.63;;;5.87;;
2259;SDS011;333;48.800;9.530;2023-04-15T04:19:45;11.07;;;5.80;;
2259;SDS011;333;48.800;9.530;2023-04-15T04:22:12;8.23;;;5.50;;
2259;SDS011;333;48.800;9.530;2023-04-15T04:24:39;7.00;;;5.80;;
2259;SDS011;333;48.800;9.530;2023-04-15T04:27:06;5.67;;;4.83;;
2259;SDS011;333;48.800;9.530;2023-04-15T04:29:33;6.40;;;5.77;;
2259;SDS011;333;48.800;9.530;2023-04-15T04:32:00;7.10;;;5.63;;
2259;SDS011;333;48.800;9.530;2023-04-15T04:34:29;5.90;;;4.90;;
2259;SDS011;333;48.800;9.530;2023-04-15T04:36:56;7.20;;;6.33;;
2259;SDS011;333;48.800;9.530;2023-04-15T04:39:23;8.50;;;6.47;;
2259;SDS011;333;48.800;9.530;2023-04-15T04:41:50;8.67;;;5.10;;
2259;SDS011;333;48.800;9.530;2023-04-15T04:44:17;5.43;;;5.00;;
2259;SDS011;333;48.800;9.530;2023-04-15T04:46:44;6.03;;;5.43;;
2259;SDS011;333;48.800;9.530;2023-04-15T04:49:11;7.23;;;5.20;;
2259;SDS011;333;48.800;9.530;2023-04-15T04:51:39;6.57;;;5.97;;
2259;SDS011;333;48.800;9.530;2023-04-15T04:54:06;9.43;;;5.90;;
2259;SDS011;333;48.800;9.530;2023-04-15T04:56:33;6.60;;;5.47;;
2259;SDS011;333;48.800;9.530;2023-04-15T04:59:03;11.00;;;6.30;;
2259;SDS011;333;48.800;9.530;2023-04-15T05:01:29;9.80;;;6.57;;
2259;SDS011;333;48.800;9.530;2023-04-15T05:03:56;7.70;;;6.33;;
2259;SDS011;333;48.800;9.530;2023-04-15T05:06:23;7.83;;;6.13;;
2259;SDS011;333;48.800;9.530;2023-04-15T05:08:52;6.87;;;6.23;;
2259;SDS011;333;48.800;9.530;2023-04-15T05:11:19;7.37;;;6.23;;
2259;SDS011;333;48.800;9.530;2023-04-15T05:13:46;9.93;;;6.37;;
2259;SDS011;333;48.800;9.530;2023-04-15T05:16:13;8.27;;;6.53;;
2259;SDS011;333;48.800;9.530;2023-04-15T05:18:40;12.00;;;6.83;;
2259;SDS011;333;48.800;9.530;2023-04-15T05:21:07;7.37;;;6.67;;
2259;SDS011;333;48.800;9.530;2023-04-15T05:23:34;9.33;;;8.43;;
2259;SDS011;333;48.800;9.530;2023-04-15T05:26:04;9.63;;;8.63;;
2259;SDS011;333;48.800;9.530;2023-04-15T05:28:34;11.10;;;8.57;;
2259;SDS011;333;48.800;9.530;2023-04-15T05:31:04;11.77;;;7.83;;
2259;SDS011;333;48.800;9.530;2023-04-15T05:33:31;9.37;;;8.47;;
2259;SDS011;333;48.800;9.530;2023-04-15T05:35:58;8.10;;;7.20;;
2259;SDS011;333;48.800;9.530;2023-04-15T05:38:25;12.57;;;8.20;;
2259;SDS011;333;48.800;9.530;2023-04-15T05:40:52;7.67;;;6.87;;
2259;SDS011;333;48.800;9.530;2023-04-15T05:43:21;21.63;;;7.73;;
2259;SDS011;333;48.800;9.530;2023-04-15T05:45:48;7.90;;;6.97;;
2259;SDS011;333;48.800;9.530;2023-04-15T05:48:15;8.60;;;7.80;;
2259;SDS011;333;48.800;9.530;2023-04-15T05:50:42;10.27;;;8.03;;
2259;SDS011;333;48.800;9.530;2023-04-15T05:53:09;10.00;;;8.90;;
2259;SDS011;333;48.800;9.530;2023-04-15T05:55:36;9.17;;;8.13;;
2259;SDS011;333;48.800;9.530;2023-04-15T05:58:03;12.70;;;8.53;;
2259;SDS011;333;48.800;9.530;2023-04-15T06:00:32;9.10;;;7.30;;
2259;SDS011;333;48.800;9.530;2023-04-15T06:02:59;8.20;;;7.40;;
2259;SDS011;333;48.800;9.530;2023-04-15T06:05:26;10.23;;;7.77;;
2259;SDS011;333;48.800;9.530;2023-04-15T06:07:53;12.33;;;7.50;;
2259;SDS011;333;48.800;9.530;2023-04-15T06:10:20;9.50;;;6.70;;
2259;SDS011;333;48.800;9.530;2023-04-15T06:12:47;9.57;;;7.77;;
2259;SDS011;333;48.800;9.530;2023-04-15T06:15:14;8.20;;;7.40;;
2259;SDS011;333;48.800;9.530;2023-04-15T06:17:42;7.97;;;6.10;;
2259;SDS011;333;48.800;9.530;2023-04-15T06:20:10;7.20;;;6.07;;
2259;SDS011;333;48.800;9.530;2023-04-15T06:22:38;8.03;;;6.23;;
2259;SDS011;333;48.800;9.530;2023-04-15T06:25:05;7.90;;;6.17;;
2259;SDS011;333;48.800;9.530;2023-04-15T06:27:33;6.20;;;5.67;;
2259;SDS011;333;48.800;9.530;2023-04-15T06:30:00;8.40;;;5.50;;
2259;SDS011;333;48.800;9.530;2023-04-15T06:32:27;8.00;;;6.00;;
2259;SDS011;333;48.800;9.530;2023-04-15T06:34:56;8.23;;;5.97;;
2259;SDS011;333;48.800;9.530;2023-04-15T06:37:24;6.57;;;5.60;;
2259;SDS011;333;48.800;9.530;2023-04-15T06:39:51;6.00;;;4.67;;
2259;SDS011;333;48.800;9.530;2023-04-15T06:42:22;12.47;;;5.90;;
2259;SDS011;333;48.800;9.530;2023-04-15T06:44:49;5.70;;;5.17;;
2259;SDS011;333;48.800;9.530;2023-04-15T06:47:17;5.70;;;5.20;;
2259;SDS011;333;48.800;9.530;2023-04-15T06:49:44;5.27;;;4.57;;
2259;SDS011;333;48.800;9.530;2023-04-15T06:52:12;5.20;;;4.63;;
2259;SDS011;333;48.800;9.530;2023-04-15T06:54:40;6.17;;;5.57;;
2259;SDS011;333;48.800;9.530;2023-04-15T06:57:07;5.83;;;5.30;;
2259;SDS011;333;48.800;9.530;2023-04-15T06:59:34;5.43;;;4.93;;
2259;SDS011;333;48.800;9.530;2023-04-15T07:02:04;6.00;;;5.10;;
2259;SDS011;333;48.800;9.530;2023-04-15T07:04:35;6.40;;;5.90;;
2259;SDS011;333;48.800;9.530;2023-04-15T07:07:02;9.00;;;6.30;;
2259;SDS011;333;48.800;9.530;2023-04-15T07:09:31;7.67;;;5.43;;
2259;SDS011;333;48.800;9.530;2023-04-15T07:11:58;7.00;;;5.33;;
2259;SDS011;333;48.800;9.530;2023-04-15T07:14:25;9.80;;;6.60;;
2259;SDS011;333;48.800;9.530;2023-04-15T07:16:53;7.00;;;5.70;;
2259;SDS011;333;48.800;9.530;2023-04-15T07:19:20;8.03;;;5.93;;
2259;SDS011;333;48.800;9.530;2023-04-15T07:21:48;6.90;;;5.23;;
2259;SDS011;333;48.800;9.530;2023-04-15T07:24:15;7.93;;;5.80;;
2259;SDS011;333;48.800;9.530;2023-04-15T07:26:45;7.00;;;4.50;;
2259;SDS011;333;48.800;9.530;2023-04-15T07:29:12;5.37;;;4.80;;
2259;SDS011;333;48.800;9.530;2023-04-15T07:31:39;5.43;;;4.70;;
2259;SDS011;333;48.800;9.530;2023-04-15T07:34:06;4.70;;;4.30;;
2259;SDS011;333;48.800;9.530;2023-04-15T07:36:33;5.23;;;4.37;;
2259;SDS011;333;48.800;9.530;2023-04-15T07:39:01;6.93;;;4.80;;
2259;SDS011;333;48.800;9.530;2023-04-15T07:41:28;5.00;;;4.60;;
2259;SDS011;333;48.800;9.530;2023-04-15T07:43:57;6.07;;;4.37;;
2259;SDS011;333;48.800;9.530;2023-04-15T07:46:24;7.40;;;5.47;;
2259;SDS011;333;48.800;9.530;2023-04-15T07:48:52;5.70;;;4.57;;
2259;SDS011;333;48.800;9.530;2023-04-15T07:51:21;7.60;;;5.17;;
2259;SDS011;333;48.800;9.530;2023-04-15T07:53:48;4.30;;;4.00;;
2259;SDS011;333;48.800;9.530;2023-04-15T07:56:15;5.57;;;3.97;;
2259;SDS011;333;48.800;9.530;2023-04-15T07:58:42;8.20;;;4.30;;
2259;SDS011;333;48.800;9.530;2023-04-15T08:01:11;8.37;;;4.50;;
2259;SDS011;333;48.800;9.530;2023-04-15T08:03:38;5.80;;;3.97;;
2259;SDS011;333;48.800;9.530;2023-04-15T08:06:05;5.30;;;4.80;;
2259;SDS011;333;48.800;9.530;2023-04-15T08:08:32;5.27;;;4.40;;
2259;SDS011;333;48.800;9.530;2023-04-15T08:10:59;5.50;;;4.30;;
2259;SDS011;333;48.800;9.530;2023-04-15T08:13:26;4.47;;;4.07;;
2259;SDS011;333;48.800;9.530;2023-04-15T08:18:42;5.83;;;3.50;;
2259;SDS011;333;48.800;9.530;2023-04-15T08:21:09;3.40;;;3.10;;
2259;SDS011;333;48.800;9.530;2023-04-15T08:23:36;8.67;;;3.43;;
2259;SDS011;333;48.800;9.530;2023-04-15T08:26:04;4.93;;;3.00;;
2259;SDS011;333;48.800;9.530;2023-04-15T08:28:31;4.13;;;3.23;;
2259;SDS011;333;48.800;9.530;2023-04-15T08:30:58;7.20;;;3.50;;
2259;SDS011;333;48.800;9.530;2023-04-15T08:33:27;5.37;;;2.90;;
2259;SDS011;333;48.800;9.530;2023-04-15T08:35:54;3.77;;;3.10;;
2259;SDS011;333;48.800;9.530;2023-04-15T08:38:21;3.60;;;3.30;;
2259;SDS011;333;48.800;9.530;2023-04-15T08:40:49;2.90;;;2.70;;
2259;SDS011;333;48.800;9.530;2023-04-15T08:43:17;4.50;;;3.60;;
2259;SDS011;333;48.800;9.530;2023-04-15T08:45:48;3.33;;;3.03;;
2259;SDS011;333;48.800;9.530;2023-04-15T08:48:17;5.83;;;3.47;;
2259;SDS011;333;48.800;9.530;2023-04-15T08:50:46;5.53;;;4.30;;
2259;SDS011;333;48.800;9.530;2023-04-15T08:53:14;5.03;;;3.67;;
2259;SDS011;333;48.800;9.530;2023-04-15T08:55:41;6.43;;;3.60;;
2259;SDS011;333;48.800;9.530;2023-04-15T08:58:10;2.70;;;2.40;;
2259;SDS011;333;48.800;9.530;2023-04-15T09:00:37;5.60;;;3.73;;
2259;SDS011;333;48.800;9.530;2023-04-15T09:03:05;5.23;;;3.73;;
2259;SDS011;333;48.800;9.530;2023-04-15T09:05:33;6.03;;;3.53;;
2259;SDS011;333;48.800;9.530;2023-04-15T09:08:03;4.90;;;3.73;;
2259;SDS011;333;48.800;9.530;2023-04-15T09:10:31;3.73;;;3.43;;
2259;SDS011;333;48.800;9.530;2023-04-15T09:12:59;7.13;;;4.07;;
2259;SDS011;333;48.800;9.530;2023-04-15T09:15:27;5.17;;;4.20;;
2259;SDS011;333;48.800;9.530;2023-04-15T09:17:54;3.03;;;2.83;;
2259;SDS011;333;48.800;9.530;2023-04-15T09:20:23;5.77;;;3.80;;
2259;SDS011;333;48.800;9.530;2023-04-15T09:22:50;3.53;;;3.23;;
2259;SDS011;333;48.800;9.530;2023-04-15T09:25:25;5.60;;;3.80;;
2259;SDS011;333;48.800;9.530;2023-04-15T09:27:54;3.20;;;2.90;;
2259;SDS011;333;48.800;9.530;2023-04-15T09:30:22;5.23;;;3.07;;
2259;SDS011;333;48.800;9.530;2023-04-15T09:32:49;5.53;;;2.90;;
2259;SDS011;333;48.800;9.530;2023-04-15T09:35:18;5.67;;;2.73;;
2259;SDS011;333;48.800;9.530;2023-04-15T09:37:46;3.37;;;2.53;;
2259;SDS011;333;48.800;9.530;2023-04-15T09:40:14;3.40;;;2.87;;
2259;SDS011;333;48.800;9.530;2023-04-15T09:42:57;3.80;;;2.60;;
2259;SDS011;333;48.800;9.530;2023-04-15T09:45:24;3.53;;;2.53;;
2259;SDS011;333;48.800;9.530;2023-04-15T09:47:51;3.17;;;2.87;;
2259;SDS011;333;48.800;9.530;2023-04-15T09:50:19;4.80;;;3.07;;
2259;SDS011;333;48.800;9.530;2023-04-15T09:52:46;5.20;;;3.23;;
2259;SDS011;333;48.800;9.530;2023-04-15T09:55:13;3.67;;;3.27;;
2259;SDS011;333;48.800;9.530;2023-04-15T09:57:41;4.40;;;3.47;;
2259;SDS011;333;48.800;9.530;2023-04-15T10:00:10;5.07;;;2.87;;
2259;SDS011;333;48.800;9.530;2023-04-15T10:02:38;3.23;;;2.93;;
2259;SDS011;333;48.800;9.530;2023-04-15T10:05:06;3.60;;;2.80;;
2259;SDS011;333;48.800;9.530;2023-04-15T10:07:36;3.43;;;2.80;;
2259;SDS011;333;48.800;9.530;2023-04-15T10:10:05;3.30;;;3.00;;
2259;SDS011;333;48.800;9.530;2023-04-15T10:12:33;3.70;;;2.80;;
2259;SDS011;333;48.800;9.530;2023-04-15T10:15:03;4.47;;;3.03;;
2259;SDS011;333;48.800;9.530;2023-04-15T10:17:33;4.03;;;2.73;;
2259;SDS011;333;48.800;9.530;2023-04-15T10:20:02;3.77;;;3.30;;
2259;SDS011;333;48.800;9.530;2023-04-15T10:22:30;4.33;;;3.03;;
2259;SDS011;333;48.800;9.530;2023-04-15T10:24:57;4.03;;;3.13;;
2259;SDS011;333;48.800;9.530;2023-04-15T10:27:25;3.67;;;3.17;;
2259;SDS011;333;48.800;9.530;2023-04-15T10:29:53;4.10;;;3.80;;
2259;SDS011;333;48.800;9.530;2023-04-15T10:32:21;4.13;;;3.23;;
2259;SDS011;333;48.800;9.530;2023-04-15T10:34:51;4.13;;;2.87;;
2259;SDS011;333;48.800;9.530;2023-04-15T10:37:21;5.23;;;3.90;;
2259;SDS011;333;48.800;9.530;2023-04-15T10:39:58;6.03;;;4.43;;
2259;SDS011;333;48.800;9.530;2023-04-15T10:42:32;5.67;;;4.27;;
2259;SDS011;333;48.800;9.530;2023-04-15T10:44:59;3.83;;;3.47;;
2259;SDS011;333;48.800;9.530;2023-04-15T10:47:27;5.30;;;4.20;;
2259;SDS011;333;48.800;9.530;2023-04-15T10:49:57;6.57;;;4.00;;
2259;SDS011;333;48.800;9.530;2023-04-15T10:52:28;3.77;;;3.47;;
2259;SDS011;333;48.800;9.530;2023-04-15T10:55:01;7.90;;;3.47;;
2259;SDS011;333;48.800;9.530;2023-04-15T10:57:33;4.83;;;3.40;;
2259;SDS011;333;48.800;9.530;2023-04-15T11:00:01;4.90;;;4.00;;
2259;SDS011;333;48.800;9.530;2023-04-15T11:02:39;4.17;;;3.80;;
2259;SDS011;333;48.800;9.530;2023-04-15T11:05:10;3.53;;;3.23;;
2259;SDS011;333;48.800;9.530;2023-04-15T11:07:39;4.60;;;4.17;;
2259;SDS011;333;48.800;9.530;2023-04-15T11:13:22;4.87;;;4.20;;
2259;SDS011;333;48.800;9.530;2023-04-15T11:15:56;4.20;;;3.90;;
2259;SDS011;333;48.800;9.530;2023-04-15T11:18:28;4.30;;;3.90;;
2259;SDS011;333;48.800;9.530;2023-04-15T11:20:58;3.60;;;3.30;;
2259;SDS011;333;48.800;9.530;2023-04-15T11:23:31;6.00;;;4.30;;
2259;SDS011;333;48.800;9.530;2023-04-15T11:26:00;4.10;;;3.70;;
2259;SDS011;333;48.800;9.530;2023-04-15T11:28:29;5.93;;;2.97;;
2259;SDS011;333;48.800;9.530;2023-04-15T11:30:57;4.80;;;4.30;;
2259;SDS011;333;48.800;9.530;2023-04-15T11:33:34;4.20;;;3.80;;
2259;SDS011;333;48.800;9.530;2023-04-15T11:36:03;6.00;;;4.77;;
2259;SDS011;333;48.800;9.530;2023-04-15T11:38:30;3.77;;;3.50;;
2259;SDS011;333;48.800;9.530;2023-04-15T11:40:59;4.40;;;4.00;;
2259;SDS011;333;48.800;9.530;2023-04-15T11:43:26;4.13;;;3.77;;
2259;SDS011;333;48.800;9.530;2023-04-15T11:45:54;6.00;;;4.20;;
2259;SDS011;333;48.800;9.530;2023-04-15T11:48:23;3.97;;;3.67;;
2259;SDS011;333;48.800;9.530;2023-04-15T11:50:55;6.07;;;3.77;;
2259;SDS011;333;48.800;9.530;2023-04-15T11:53:24;3.97;;;3.60;;
2259;SDS011;333;48.800;9.530;2023-04-15T11:56:02;6.03;;;3.90;;
2259;SDS011;333;48.800;9.530;2023-04-15T11:58:29;5.00;;;4.40;;
2259;SDS011;333;48.800;9.530;2023-04-15T12:00:57;4.53;;;4.13;;
2259;SDS011;333;48.800;9.530;2023-04-15T12:03:26;5.30;;;4.37;;
2259;SDS011;333;48.800;9.530;2023-04-15T12:06:06;6.57;;;3.80;;
2259;SDS011;333;48.800;9.530;2023-04-15T12:08:49;4.90;;;4.33;;
2259;SDS011;333;48.800;9.530;2023-04-15T12:11:18;4.27;;;3.87;;
2259;SDS011;333;48.800;9.530;2023-04-15T12:13:46;6.90;;;4.07;;
2259;SDS011;333;48.800;9.530;2023-04-15T12:16:15;6.57;;;5.33;;
2259;SDS011;333;48.800;9.530;2023-04-15T12:18:43;5.47;;;4.43;;
2259;SDS011;333;48.800;9.530;2023-04-15T12:21:11;4.10;;;3.70;;
2259;SDS011;333;48.800;9.530;2023-04-15T12:23:39;9.20;;;4.20;;
2259;SDS011;333;48.800;9.530;2023-04-15T12:26:15;5.30;;;4.50;;
2259;SDS011;333;48.800;9.530;2023-04-15T12:28:42;3.80;;;3.40;;
2259;SDS011;333;48.800;9.530;2023-04-15T12:31:10;4.70;;;3.60;;
2259;SDS011;333;48.800;9.530;2023-04-15T12:33:39;3.37;;;3.10;;
2259;SDS011;333;48.800;9.530;2023-04-15T12:36:06;8.53;;;2.73;;
2259;SDS011;333;48.800;9.530;2023-04-15T12:38:33;6.47;;;3.10;;
2259;SDS011;333;48.800;9.530;2023-04-15T12:41:00;6.70;;;3.20;;
2259;SDS011;333;48.800;9.530;2023-04-15T12:43:29;2.60;;;2.40;;
2259;SDS011;333;48.800;9.530;2023-04-15T12:45:56;4.17;;;2.93;;
2259;SDS011;333;48.800;9.530;2023-04-15T12:48:23;4.27;;;3.40;;
2259;SDS011;333;48.800;9.530;2023-04-15T12:50:50;3.80;;;3.50;;
2259;SDS011;333;48.800;9.530;2023-04-15T12:53:17;4.20;;;2.80;;
2259;SDS011;333;48.800;9.530;2023-04-15T12:55:44;3.33;;;2.90;;
2259;SDS011;333;48.800;9.530;2023-04-15T12:58:11;7.10;;;3.83;;
2259;SDS011;333;48.800;9.530;2023-04-15T13:00:40;2.47;;;2.23;;
2259;SDS011;333;48.800;9.530;2023-04-15T13:03:07;3.47;;;2.93;;
2259;SDS011;333;48.800;9.530;2023-04-15T13:05:37;3.30;;;2.90;;
2259;SDS011;333;48.800;9.530;2023-04-15T13:08:07;2.90;;;2.60;;
2259;SDS011;333;48.800;9.530;2023-04-15T13:10:34;3.70;;;2.63;;
2259;SDS011;333;48.800;9.530;2023-04-15T13:13:02;2.27;;;2.10;;
2259;SDS011;333;48.800;9.530;2023-04-15T13:15:30;2.93;;;2.30;;
2259;SDS011;333;48.800;9.530;2023-04-15T13:17:59;5.20;;;2.60;;
2259;SDS011;333;48.800;9.530;2023-04-15T13:20:30;3.17;;;2.67;;
2259;SDS011;333;48.800;9.530;2023-04-15T13:22:57;3.20;;;2.10;;
2259;SDS011;333;48.800;9.530;2023-04-15T13:25:23;3.23;;;2.10;;
2259;SDS011;333;48.800;9.530;2023-04-15T13:27:51;4.30;;;2.90;;
2259;SDS011;333;48.800;9.530;2023-04-15T13:30:18;4.30;;;2.20;;
2259;SDS011;333;48.800;9.530;2023-04-15T13:32:45;2.70;;;2.50;;
2259;SDS011;333;48.800;9.530;2023-04-15T13:35:14;5.03;;;2.70;;
2259;SDS011;333;48.800;9.530;2023-04-15T13:37:41;1.90;;;1.50;;
2259;SDS011;333;48.800;9.530;2023-04-15T13:40:08;3.00;;;1.30;;
2259;SDS011;333;48.800;9.530;2023-04-15T13:42:39;3.00;;;1.90;;
2259;SDS011;333;48.800;9.530;2023-04-15T13:45:07;1.63;;;1.50;;
2259;SDS011;333;48.800;9.530;2023-04-15T13:47:37;2.50;;;1.60;;
2259;SDS011;333;48.800;9.530;2023-04-15T13:50:05;1.60;;;1.50;;
2259;SDS011;333;48.800;9.530;2023-04-15T13:52:34;1.30;;;1.20;;
2259;SDS011;333;48.800;9.530;2023-04-15T13:55:01;2.37;;;1.43;;
2259;SDS011;333;48.800;9.530;2023-04-15T13:57:28;0.90;;;0.90;;
2259;SDS011;333;48.800;9.530;2023-04-15T13:59:56;1.67;;;1.40;;
2259;SDS011;333;48.800;9.530;2023-04-15T14:02:23;3.33;;;1.43;;
2259;SDS011;333;48.800;9.530;2023-04-15T14:04:50;1.40;;;1.10;;
2259;SDS011;333;48.800;9.530;2023-04-15T14:07:17;1.63;;;1.30;;
2259;SDS011;333;48.800;9.530;2023-04-15T14:09:46;2.60;;;1.00;;
2259;SDS011;333;48.800;9.530;2023-04-15T14:12:13;1.90;;;1.30;;
2259;SDS011;333;48.800;9.530;2023-04-15T14:14:40;1.40;;;1.30;;
2259;SDS011;333;48.800;9.530;2023-04-15T14:17:07;1.83;;;0.97;;
2259;SDS011;333;48.800;9.530;2023-04-15T14:19:43;3.53;;;1.43;;
2259;SDS011;333;48.800;9.530;2023-04-15T14:22:12;1.53;;;1.40;;
2259;SDS011;333;48.800;9.530;2023-04-15T14:24:39;1.63;;;1.20;;
2259;SDS011;333;48.800;9.530;2023-04-15T14:27:07;1.93;;;1.43;;
2259;SDS011;333;48.800;9.530;2023-04-15T14:29:36;3.33;;;2.30;;
2259;SDS011;333;48.800;9.530;2023-04-15T14:32:03;2.00;;;1.67;;
2259;SDS011;333;48.800;9.530;2023-04-15T14:34:31;3.17;;;2.17;;
2259;SDS011;333;48.800;9.530;2023-04-15T14:36:58;3.37;;;1.10;;
2259;SDS011;333;48.800;9.530;2023-04-15T14:39:25;1.77;;;1.30;;
2259;SDS011;333;48.800;9.530;2023-04-15T14:41:52;2.13;;;1.40;;
2259;SDS011;333;48.800;9.530;2023-04-15T14:44:24;1.43;;;1.33;;
2259;SDS011;333;48.800;9.530;2023-04-15T14:46:52;5.10;;;1.40;;
2259;SDS011;333;48.800;9.530;2023-04-15T14:49:21;1.80;;;1.60;;
2259;SDS011;333;48.800;9.530;2023-04-15T14:51:48;1.73;;;1.60;;
2259;SDS011;333;48.800;9.530;2023-04-15T14:54:17;1.67;;;1.57;;
2259;SDS011;333;48.800;9.530;2023-04-15T14:56:44;2.40;;;1.63;;
2259;SDS011;333;48.800;9.530;2023-04-15T14:59:13;2.37;;;1.30;;
2259;SDS011;333;48.800;9.530;2023-04-15T15:01:42;1.30;;;1.17;;
2259;SDS011;333;48.800;9.530;2023-04-15T15:04:13;1.47;;;0.90;;
2259;SDS011;333;48.800;9.530;2023-04-15T15:06:41;1.37;;;1.27;;
2259;SDS011;333;48.800;9.530;2023-04-15T15:09:08;1.20;;;1.10;;
2259;SDS011;333;48.800;9.530;2023-04-15T15:11:35;1.30;;;1.10;;
2259;SDS011;333;48.800;9.530;2023-04-15T15:14:03;3.20;;;1.77;;
2259;SDS011;333;48.800;9.530;2023-04-15T15:16:30;1.50;;;1.30;;
2259;SDS011;333;48.800;9.530;2023-04-15T15:19:01;2.13;;;1.50;;
2259;SDS011;333;48.800;9.530;2023-04-15T15:21:29;1.80;;;1.30;;
2259;SDS011;333;48.800;9.530;2023-04-15T15:23:56;1.83;;;1.57;;
2259;SDS011;333;48.800;9.530;2023-04-15T15:26:24;1.40;;;1.30;;
2259;SDS011;333;48.800;9.530;2023-04-15T15:28:52;2.47;;;1.70;;
2259;SDS011;333;48.800;9.530;2023-04-15T15:31:19;1.50;;;1.40;;
2259;SDS011;333;48.800;9.530;2023-04-15T15:33:47;2.67;;;2.53;;
2259;SDS011;333;48.800;9.530;2023-04-15T15:36:17;2.47;;;1.47;;
2259;SDS011;333;48.800;9.530;2023-04-15T15:38:44;2.47;;;1.80;;
2259;SDS011;333;48.800;9.530;2023-04-15T15:41:11;2.57;;;1.90;;